createdAt,value
2023-05-06T00:02:09.970Z,99.90
2023-05-06T00:04:39.682Z,99.90
2023-05-06T00:07:07.670Z,99.90
2023-05-06T00:09:35.545Z,99.90
2023-05-06T00:12:05.504Z,99.90
2023-05-06T00:14:33.449Z,99.90
2023-05-06T00:17:01.399Z,99.90
2023-05-06T00:19:29.295Z,99.90
2023-05-06T00:21:58.566Z,99.90
2023-05-06T00:24:26.487Z,99.90
2023-05-06T00:26:54.445Z,99.90
2023-05-06T00:29:22.343Z,99.90
2023-05-06T00:31:50.282Z,99.90
2023-05-06T00:34:18.262Z,99.90
2023-05-06T00:36:46.147Z,99.90
2023-05-06T00:39:16.329Z,99.90
2023-05-06T00:41:44.209Z,99.90
2023-05-06T00:44:12.106Z,99.90
2023-05-06T00:46:40.345Z,99.90
2023-05-06T00:49:08.263Z,99.90
2023-05-06T00:51:36.317Z,99.90
2023-05-06T00:54:04.734Z,99.90
2023-05-06T00:56:34.114Z,99.90
2023-05-06T00:59:02.123Z,99.90
2023-05-06T01:01:31.733Z,99.90
2023-05-06T01:03:59.825Z,99.90
2023-05-06T01:06:31.038Z,99.90
2023-05-06T01:09:02.086Z,99.90
2023-05-06T01:11:34.385Z,99.90
2023-05-06T01:14:07.606Z,99.90
2023-05-06T01:16:37.925Z,99.90
2023-05-06T01:19:07.127Z,99.90
2023-05-06T01:21:35.717Z,99.90
2023-05-06T01:24:05.068Z,99.90
2023-05-06T01:29:55.125Z,99.90
2023-05-06T01:32:35.802Z,99.90
2023-05-06T01:35:07.349Z,99.90
2023-05-06T01:37:39.279Z,99.90
2023-05-06T01:40:09.469Z,1.00
2023-05-06T01:42:38.857Z,1.00
2023-05-06T01:45:08.266Z,1.00
2023-05-06T01:47:36.889Z,1.00
2023-05-06T01:50:05.650Z,1.00
2023-05-06T01:52:33.548Z,1.00
2023-05-06T01:55:01.458Z,1.00
2023-05-06T01:57:30.741Z,1.00
2023-05-06T01:59:58.651Z,1.00
2023-05-06T02:02:26.540Z,1.00
2023-05-06T02:04:54.607Z,99.90
2023-05-06T02:07:22.489Z,99.90
2023-05-06T02:09:50.423Z,1.00
2023-05-06T02:12:18.381Z,1.00
2023-05-06T02:14:47.673Z,1.00
2023-05-06T02:17:15.718Z,1.00
2023-05-06T02:19:43.607Z,99.90
2023-05-06T02:22:11.490Z,99.90
2023-05-06T02:24:39.409Z,99.90
2023-05-06T02:27:07.498Z,99.90
2023-05-06T02:29:35.514Z,99.90
2023-05-06T02:32:04.913Z,99.90
2023-05-06T02:34:33.670Z,1.00
2023-05-06T02:37:01.536Z,1.00
2023-05-06T02:39:29.555Z,1.00
2023-05-06T02:41:57.459Z,1.00
2023-05-06T02:44:25.408Z,99.90
2023-05-06T02:46:53.367Z,99.90
2023-05-06T02:49:22.666Z,99.90
2023-05-06T02:51:50.564Z,1.00
2023-05-06T02:54:18.468Z,1.00
2023-05-06T02:56:46.407Z,1.00
2023-05-06T02:59:14.504Z,99.90
2023-05-06T03:01:42.405Z,99.90
2023-05-06T03:04:10.389Z,1.00
2023-05-06T03:06:39.704Z,99.90
2023-05-06T03:09:08.637Z,99.90
2023-05-06T03:11:36.632Z,99.90
2023-05-06T03:14:04.514Z,99.90
2023-05-06T03:16:32.506Z,99.90
2023-05-06T03:19:00.519Z,99.90
2023-05-06T03:21:28.517Z,99.90
2023-05-06T03:23:57.805Z,99.90
2023-05-06T03:26:25.834Z,99.90
2023-05-06T03:28:53.745Z,99.90
2023-05-06T03:31:21.706Z,99.90
2023-05-06T03:33:49.646Z,99.90
2023-05-06T03:36:17.610Z,99.90
2023-05-06T03:38:45.486Z,99.90
2023-05-06T03:41:14.830Z,99.90
2023-05-06T03:43:42.742Z,99.90
2023-05-06T03:46:11.349Z,99.90
2023-05-06T03:48:39.287Z,99.90
2023-05-06T03:51:07.182Z,99.90
2023-05-06T03:53:35.186Z,99.90
2023-05-06T03:56:03.137Z,99.90
2023-05-06T03:58:32.388Z,99.90
2023-05-06T04:01:01.045Z,99.90
2023-05-06T04:03:29.153Z,99.90
2023-05-06T04:05:57.183Z,99.90
2023-05-06T04:08:25.126Z,99.90
2023-05-06T04:10:52.996Z,99.90
2023-05-06T04:13:20.989Z,99.90
2023-05-06T04:15:50.926Z,99.90
2023-05-06T04:18:19.999Z,99.90
2023-05-06T04:20:48.960Z,99.90
2023-05-06T04:23:16.882Z,99.90
2023-05-06T04:25:48.751Z,99.90
2023-05-06T04:28:17.669Z,99.90
2023-05-06T04:30:45.880Z,99.90
2023-05-06T04:33:15.164Z,99.90
2023-05-06T04:35:50.977Z,99.90
2023-05-06T04:38:19.185Z,99.90
2023-05-06T04:40:47.060Z,99.90
2023-05-06T04:43:14.990Z,99.90
2023-05-06T04:45:49.519Z,99.90
2023-05-06T04:48:20.275Z,99.90
2023-05-06T04:50:48.200Z,99.90
2023-05-06T04:53:16.490Z,99.90
2023-05-06T04:55:44.463Z,99.90
2023-05-06T04:58:12.355Z,99.90
2023-05-06T05:00:40.497Z,99.90
2023-05-06T05:03:08.509Z,99.90
2023-05-06T05:05:37.929Z,99.90
2023-05-06T05:08:06.010Z,99.90
2023-05-06T05:10:33.946Z,99.90
2023-05-06T05:13:01.908Z,99.90
2023-05-06T05:15:30.002Z,99.90
2023-05-06T05:17:58.397Z,1.00
2023-05-06T05:20:26.305Z,1.00
2023-05-06T05:22:55.595Z,1.00
2023-05-06T05:25:23.508Z,1.00
2023-05-06T05:27:51.352Z,1.00
2023-05-06T05:30:19.429Z,1.00
2023-05-06T05:32:47.339Z,20.00
2023-05-06T05:35:16.201Z,56.50
2023-05-06T05:37:44.077Z,99.90
2023-05-06T05:40:13.975Z,99.90
2023-05-06T05:42:41.869Z,99.90
2023-05-06T05:45:10.438Z,1.00
2023-05-06T05:47:41.062Z,99.90
2023-05-06T05:50:09.466Z,99.90
2023-05-06T05:52:37.374Z,94.90
2023-05-06T05:55:05.654Z,99.90
2023-05-06T05:57:34.885Z,99.90
2023-05-06T06:00:02.913Z,99.90
2023-05-06T06:02:30.900Z,99.90
2023-05-06T06:04:58.896Z,99.90
2023-05-06T06:07:26.989Z,1.00
2023-05-06T06:09:54.936Z,99.90
2023-05-06T06:12:23.584Z,99.90
2023-05-06T06:14:52.948Z,99.90
2023-05-06T06:17:20.818Z,99.90
2023-05-06T06:19:48.726Z,63.10
2023-05-06T06:27:12.931Z,99.90
2023-05-06T06:29:40.829Z,54.60
2023-05-06T06:32:10.113Z,77.10
2023-05-06T06:34:38.048Z,1.00
2023-05-06T06:37:08.084Z,1.00
2023-05-06T06:39:36.093Z,1.00
2023-05-06T06:42:04.920Z,99.90
2023-05-06T06:44:32.841Z,99.90
2023-05-06T06:47:00.932Z,99.90
2023-05-06T06:49:32.379Z,99.90
2023-05-06T06:52:00.267Z,99.90
2023-05-06T06:56:57.450Z,99.90
2023-05-06T06:59:25.401Z,97.00
2023-05-06T07:01:53.270Z,35.30
2023-05-06T07:04:21.259Z,99.90
2023-05-06T07:06:50.617Z,1.00
2023-05-06T07:09:18.640Z,15.50
2023-05-06T07:11:46.603Z,1.00
2023-05-06T07:14:14.538Z,1.00
2023-05-06T07:16:44.522Z,1.00
2023-05-06T07:19:13.891Z,1.00
2023-05-06T07:21:41.895Z,1.00
2023-05-06T07:24:11.366Z,1.00
2023-05-06T07:26:39.360Z,1.00
2023-05-06T07:29:07.322Z,1.00
2023-05-06T07:31:35.311Z,1.00
2023-05-06T07:36:36.122Z,99.90
2023-05-06T07:39:05.310Z,1.00
2023-05-06T07:41:36.843Z,99.90
2023-05-06T07:44:05.051Z,99.90
2023-05-06T07:46:33.142Z,1.00
2023-05-06T07:49:01.102Z,99.90
2023-05-06T07:51:29.103Z,99.90
2023-05-06T07:53:57.223Z,99.90
2023-05-06T07:58:55.068Z,99.90
2023-05-06T08:01:22.875Z,99.90
2023-05-06T08:03:50.843Z,99.90
2023-05-06T08:06:18.828Z,99.90
2023-05-06T08:08:47.478Z,99.90
2023-05-06T08:11:16.997Z,99.90
2023-05-06T08:13:46.212Z,99.90
2023-05-06T08:16:15.748Z,99.90
2023-05-06T08:18:43.675Z,99.90
2023-05-06T08:21:11.618Z,99.90
2023-05-06T08:23:39.532Z,99.90
2023-05-06T08:26:07.458Z,99.90
2023-05-06T08:28:35.393Z,99.90
2023-05-06T08:31:03.253Z,99.90
2023-05-06T08:33:32.517Z,1.00
2023-05-06T08:36:00.455Z,99.90
2023-05-06T08:38:28.332Z,99.90
2023-05-06T08:40:56.378Z,99.90
2023-05-06T08:43:27.207Z,1.00
2023-05-06T08:45:55.644Z,99.90
2023-05-06T08:48:23.625Z,47.10
2023-05-06T08:50:53.854Z,99.90
2023-05-06T08:53:21.814Z,99.90
2023-05-06T08:58:18.313Z,99.90
2023-05-06T09:00:46.976Z,99.90
2023-05-06T09:03:15.006Z,99.90
2023-05-06T09:05:43.068Z,99.90
2023-05-06T09:08:12.489Z,99.90
2023-05-06T09:13:11.686Z,99.90
2023-05-06T09:15:42.910Z,99.90
2023-05-06T09:18:10.889Z,99.90
2023-05-06T09:20:42.000Z,99.90
2023-05-06T09:23:10.062Z,99.90
2023-05-06T09:25:39.458Z,99.90
2023-05-06T09:28:07.881Z,99.90
2023-05-06T09:30:39.559Z,99.90
2023-05-06T09:33:07.736Z,99.90
2023-05-06T09:35:39.418Z,99.90
2023-05-06T09:38:07.765Z,99.90
2023-05-06T09:40:35.957Z,99.90
2023-05-06T09:43:05.847Z,99.90
2023-05-06T09:45:34.065Z,99.90
2023-05-06T09:48:02.076Z,99.90
2023-05-06T09:57:56.074Z,99.90
2023-05-06T10:00:28.373Z,99.90
2023-05-06T10:02:57.122Z,99.90
2023-05-06T10:05:26.116Z,99.90
2023-05-06T10:07:54.525Z,99.90
2023-05-06T10:10:25.294Z,99.90
2023-05-06T10:12:53.735Z,99.90
2023-05-06T10:15:21.919Z,99.90
2023-05-06T10:17:52.836Z,99.90
2023-05-06T10:20:22.473Z,99.90
2023-05-06T10:22:58.181Z,99.90
2023-05-06T10:25:31.222Z,99.90
2023-05-06T10:27:59.261Z,99.90
2023-05-06T10:30:27.747Z,99.90
2023-05-06T10:32:58.055Z,99.90
2023-05-06T10:35:30.599Z,99.90
2023-05-06T10:37:58.986Z,99.90
2023-05-06T10:40:26.947Z,99.90
2023-05-06T10:43:14.870Z,99.90
2023-05-06T10:45:59.736Z,99.90
2023-05-06T10:48:29.460Z,99.90
2023-05-06T10:51:15.892Z,99.90
2023-05-06T10:54:07.092Z,99.90
2023-05-06T10:56:35.950Z,99.90
2023-05-06T10:59:08.091Z,99.90
2023-05-06T11:01:36.620Z,99.90
2023-05-06T11:04:09.929Z,99.90
2023-05-06T11:06:39.890Z,99.90
2023-05-06T11:09:08.004Z,99.90
2023-05-06T11:11:48.740Z,99.90
2023-05-06T11:14:25.838Z,99.90
2023-05-06T11:16:54.334Z,99.90
2023-05-06T11:19:24.453Z,99.90
2023-05-06T11:21:52.438Z,99.90
2023-05-06T11:24:24.366Z,99.90
2023-05-06T11:26:52.621Z,99.90
2023-05-06T11:29:20.945Z,99.90
2023-05-06T11:31:49.691Z,99.90
2023-05-06T11:34:29.080Z,99.90
2023-05-06T11:36:59.384Z,99.90
2023-05-06T11:39:30.521Z,99.90
2023-05-06T11:41:59.760Z,99.90
2023-05-06T11:44:28.336Z,99.90
2023-05-06T11:47:00.026Z,99.90
2023-05-06T11:49:29.329Z,99.90
2023-05-06T11:51:58.135Z,99.90
2023-05-06T11:54:27.120Z,99.90
2023-05-06T11:56:56.444Z,99.90
2023-05-06T11:59:28.724Z,99.90
2023-05-06T12:01:57.770Z,99.90
2023-05-06T12:04:25.713Z,99.90
2023-05-06T12:06:55.705Z,99.90
2023-05-06T12:09:24.585Z,99.90
2023-05-06T12:11:52.697Z,99.90
2023-05-06T12:14:20.690Z,99.90
2023-05-06T12:16:48.701Z,99.90
2023-05-06T12:19:17.203Z,99.90
2023-05-06T12:21:46.127Z,99.90
2023-05-06T12:24:15.720Z,99.90
2023-05-06T12:26:47.545Z,99.90
2023-05-06T12:29:17.249Z,99.90
2023-05-06T12:31:47.240Z,99.90
2023-05-06T12:34:16.110Z,99.90
2023-05-06T12:36:44.760Z,99.90
2023-05-06T12:39:12.972Z,99.90
2023-05-06T12:41:43.308Z,99.90
2023-05-06T12:44:30.069Z,99.90
2023-05-06T12:46:57.944Z,99.90
2023-05-06T12:49:25.918Z,99.90
2023-05-06T12:52:10.109Z,99.90
2023-05-06T12:54:38.155Z,99.90
2023-05-06T12:57:07.605Z,99.90
2023-05-06T12:59:36.446Z,99.90
2023-05-06T13:02:04.400Z,99.90
2023-05-06T13:04:32.392Z,99.90
2023-05-06T13:07:00.324Z,99.90
2023-05-06T13:09:28.388Z,99.90
2023-05-06T13:11:56.319Z,99.90
2023-05-06T13:14:25.557Z,99.90
2023-05-06T13:16:54.183Z,99.90
2023-05-06T13:19:32.493Z,99.90
2023-05-06T13:22:01.677Z,99.90
2023-05-06T13:24:29.825Z,99.90
2023-05-06T13:26:59.893Z,99.90
2023-05-06T13:29:29.659Z,99.90
2023-05-06T13:31:57.906Z,99.90
2023-05-06T13:34:26.114Z,99.90
2023-05-06T13:36:54.602Z,99.90
2023-05-06T13:39:22.867Z,99.90
2023-05-06T13:41:51.277Z,99.90
2023-05-06T13:44:19.448Z,99.90
2023-05-06T13:46:48.850Z,99.90
2023-05-06T13:49:16.983Z,99.90
2023-05-06T13:51:44.903Z,99.90
2023-05-06T13:54:12.817Z,99.90
2023-05-06T13:56:41.104Z,99.90
2023-05-06T13:59:10.063Z,99.90
2023-05-06T14:01:38.627Z,99.90
2023-05-06T14:04:07.994Z,99.90
2023-05-06T14:06:35.942Z,99.90
2023-05-06T14:09:04.772Z,99.90
2023-05-06T14:11:32.678Z,99.90
2023-05-06T14:14:00.616Z,99.90
2023-05-06T14:16:28.634Z,99.90
2023-05-06T14:18:56.537Z,99.90
2023-05-06T14:21:26.082Z,99.90
2023-05-06T14:23:53.994Z,99.90
2023-05-06T14:26:22.546Z,99.90
2023-05-06T14:28:50.431Z,99.90
2023-05-06T14:31:18.369Z,99.90
2023-05-06T14:33:46.272Z,99.90
2023-05-06T14:36:18.656Z,99.90
2023-05-06T14:38:47.996Z,99.90
2023-05-06T14:41:15.927Z,99.90
2023-05-06T14:43:43.833Z,99.90
2023-05-06T14:46:11.958Z,99.90
2023-05-06T14:48:39.932Z,99.90
2023-05-06T14:51:07.865Z,99.90
2023-05-06T14:53:35.810Z,99.90
2023-05-06T14:56:05.176Z,99.90
2023-05-06T14:58:33.092Z,99.90
2023-05-06T15:01:01.347Z,99.90
2023-05-06T15:03:29.318Z,99.90
2023-05-06T15:05:57.285Z,99.90
2023-05-06T15:08:26.404Z,99.90
2023-05-06T15:10:54.890Z,99.90
2023-05-06T15:13:24.251Z,99.90
2023-05-06T15:15:52.158Z,99.90
2023-05-06T15:18:20.089Z,99.90
2023-05-06T15:20:48.178Z,99.90
2023-05-06T15:23:16.076Z,99.90
2023-05-06T15:25:43.940Z,99.90
2023-05-06T15:28:11.827Z,99.90
2023-05-06T15:30:41.065Z,99.90
2023-05-06T15:33:09.385Z,99.90
2023-05-06T15:35:37.268Z,99.90
2023-05-06T15:38:05.174Z,99.90
2023-05-06T15:40:33.227Z,99.90
2023-05-06T15:43:01.218Z,99.90
2023-05-06T15:45:29.146Z,99.90
2023-05-06T15:47:58.472Z,99.90
2023-05-06T15:52:59.477Z,99.90
2023-05-06T15:55:27.414Z,99.90
2023-05-06T15:57:55.844Z,99.90
2023-05-06T16:00:24.529Z,99.90
2023-05-06T16:02:52.578Z,99.90
2023-05-06T16:05:21.950Z,99.90
2023-05-06T16:07:49.879Z,99.90
2023-05-06T16:10:17.776Z,99.90
2023-05-06T16:12:46.077Z,99.90
2023-05-06T16:15:14.094Z,99.90
2023-05-06T16:17:42.103Z,99.90
2023-05-06T16:20:11.214Z,99.90
2023-05-06T16:22:41.143Z,99.90
2023-05-06T16:25:09.398Z,99.90
2023-05-06T16:27:37.265Z,99.90
2023-05-06T16:30:05.631Z,99.90
2023-05-06T16:32:33.563Z,99.90
2023-05-06T16:35:01.541Z,99.90
2023-05-06T16:37:29.566Z,99.90
2023-05-06T16:39:58.897Z,99.90
2023-05-06T16:42:26.813Z,99.90
2023-05-06T16:44:54.701Z,99.90
2023-05-06T16:47:24.290Z,99.90
2023-05-06T16:49:52.450Z,99.90
2023-05-06T16:52:20.725Z,99.90
2023-05-06T16:54:48.622Z,99.90
2023-05-06T16:57:17.931Z,99.90
2023-05-06T16:59:45.965Z,99.90
2023-05-06T17:02:13.945Z,99.90
2023-05-06T17:04:42.120Z,99.90
2023-05-06T17:07:11.135Z,99.90
2023-05-06T17:09:39.400Z,99.90
2023-05-06T17:12:07.969Z,99.90
2023-05-06T17:14:37.235Z,99.90
2023-05-06T17:17:05.527Z,99.90
2023-05-06T17:19:34.490Z,99.90
2023-05-06T17:22:02.450Z,99.90
2023-05-06T17:24:30.328Z,99.90
2023-05-06T17:26:58.227Z,99.90
2023-05-06T17:29:26.151Z,99.90
2023-05-06T17:31:55.439Z,99.90
2023-05-06T17:34:23.374Z,99.90
2023-05-06T17:36:51.303Z,99.90
2023-05-06T17:39:19.184Z,99.90
2023-05-06T17:41:47.118Z,99.90
2023-05-06T17:44:17.524Z,99.90
2023-05-06T17:46:45.835Z,99.90
2023-05-06T17:49:15.737Z,99.90
2023-05-06T17:51:45.601Z,99.90
2023-05-06T17:54:13.637Z,99.90
2023-05-06T17:56:41.594Z,99.90
2023-05-06T17:59:09.506Z,99.90
2023-05-06T18:01:37.452Z,99.90
2023-05-06T18:04:05.562Z,99.90
2023-05-06T18:06:34.955Z,99.90
2023-05-06T18:09:02.823Z,99.90
2023-05-06T18:11:31.146Z,99.90
2023-05-06T18:13:59.068Z,99.90
2023-05-06T18:16:27.020Z,99.90
2023-05-06T18:18:54.965Z,99.90
2023-05-06T18:21:22.846Z,99.90
2023-05-06T18:23:56.066Z,99.90
2023-05-06T18:26:44.035Z,99.90
2023-05-06T18:29:13.628Z,99.90
2023-05-06T18:31:41.613Z,99.90
2023-05-06T18:34:09.565Z,99.90
2023-05-06T18:36:37.456Z,99.90
2023-05-06T18:39:07.049Z,99.90
2023-05-06T18:41:34.960Z,99.90
2023-05-06T18:44:03.123Z,99.90
2023-05-06T18:46:31.041Z,99.90
2023-05-06T18:49:00.802Z,99.90
2023-05-06T18:51:28.865Z,99.90
2023-05-06T18:53:56.738Z,99.90
2023-05-06T18:56:26.100Z,99.90
2023-05-06T18:58:54.021Z,99.90
2023-05-06T19:01:22.183Z,99.90
2023-05-06T19:03:50.228Z,99.90
2023-05-06T19:06:18.167Z,99.90
2023-05-06T19:08:46.054Z,99.90
2023-05-06T19:11:15.358Z,99.90
2023-05-06T19:13:45.071Z,99.90
2023-05-06T19:16:13.206Z,99.90
2023-05-06T19:18:41.157Z,99.90
2023-05-06T19:21:09.919Z,99.90
2023-05-06T19:23:37.870Z,99.90
2023-05-06T19:26:06.752Z,99.90
2023-05-06T19:28:34.946Z,99.90
2023-05-06T19:33:34.740Z,99.90
2023-05-06T19:36:02.657Z,99.90
2023-05-06T19:38:30.519Z,99.90
2023-05-06T19:40:58.429Z,99.90
2023-05-06T19:43:26.337Z,99.90
2023-05-06T19:45:54.263Z,99.90
2023-05-06T19:48:23.864Z,99.90
2023-05-06T19:50:53.939Z,99.90
2023-05-06T19:53:22.903Z,99.90
2023-05-06T19:55:50.868Z,99.90
2023-05-06T19:58:19.374Z,99.90
2023-05-06T20:00:47.359Z,99.90
2023-05-06T20:03:15.379Z,99.90
2023-05-06T20:05:44.756Z,99.90
2023-05-06T20:08:12.693Z,99.90
2023-05-06T20:10:40.549Z,99.90
2023-05-06T20:13:08.641Z,99.90
2023-05-06T20:15:36.567Z,99.90
2023-05-06T20:18:04.692Z,99.90
2023-05-06T20:20:34.349Z,99.90
2023-05-06T20:23:04.205Z,99.90
2023-05-06T20:25:32.283Z,99.90
2023-05-06T20:28:00.353Z,99.90
2023-05-06T20:30:28.288Z,99.90
2023-05-06T20:32:56.447Z,99.90
2023-05-06T20:35:24.508Z,99.90
2023-05-06T20:37:54.467Z,99.90
2023-05-06T20:40:23.827Z,99.90
2023-05-06T20:42:51.731Z,99.90
2023-05-06T20:45:19.625Z,99.90
2023-05-06T20:47:47.554Z,99.90
2023-05-06T20:50:17.361Z,99.90
2023-05-06T20:52:46.082Z,99.90
2023-05-06T20:55:15.220Z,99.90
2023-05-06T20:57:44.841Z,99.90
2023-05-06T21:00:13.291Z,99.90
2023-05-06T21:02:42.182Z,99.90
2023-05-06T21:05:10.678Z,99.90
2023-05-06T21:07:38.877Z,99.90
2023-05-06T21:10:07.391Z,99.90
2023-05-06T21:12:35.372Z,99.90
2023-05-06T21:15:04.981Z,99.90
2023-05-06T21:17:32.992Z,99.90
2023-05-06T21:20:01.661Z,99.90
2023-05-06T21:22:30.356Z,99.90
2023-05-06T21:24:58.214Z,99.90
2023-05-06T21:27:26.151Z,99.90
2023-05-06T21:29:54.006Z,99.90
2023-05-06T21:32:23.332Z,99.90
2023-05-06T21:34:51.325Z,99.90
2023-05-06T21:37:19.193Z,99.90
2023-05-06T21:39:47.058Z,99.90
2023-05-06T21:42:14.937Z,99.90
2023-05-06T21:44:42.820Z,99.90
2023-05-06T21:47:10.735Z,99.90
2023-05-06T21:49:40.027Z,99.90
2023-05-06T21:52:07.965Z,99.90
2023-05-06T21:54:35.852Z,99.90
2023-05-06T21:57:07.880Z,99.90
2023-05-06T21:59:36.307Z,99.90
2023-05-06T22:02:04.663Z,99.90
2023-05-06T22:04:32.681Z,99.90
2023-05-06T22:07:02.008Z,99.90
2023-05-06T22:09:29.937Z,99.90
2023-05-06T22:11:57.815Z,99.90
2023-05-06T22:14:30.369Z,99.90
2023-05-06T22:17:05.693Z,99.90
2023-05-06T22:19:33.609Z,99.90
2023-05-06T22:22:03.242Z,99.90
2023-05-06T22:24:31.129Z,99.90
2023-05-06T22:26:59.092Z,99.90
2023-05-06T22:29:26.991Z,99.90
2023-05-06T22:31:54.956Z,99.90
2023-05-06T22:34:22.969Z,99.90
2023-05-06T22:36:50.857Z,99.90
2023-05-06T22:39:20.130Z,99.90
2023-05-06T22:41:49.303Z,99.90
2023-05-06T22:44:17.230Z,99.90
2023-05-06T22:46:45.167Z,99.90
2023-05-06T22:49:13.862Z,99.90
2023-05-06T22:51:42.024Z,99.90
2023-05-06T22:54:09.905Z,99.90
2023-05-06T22:56:39.231Z,99.90
2023-05-06T22:59:07.184Z,99.90
2023-05-06T23:01:35.101Z,99.90
2023-05-06T23:04:03.449Z,1.00
2023-05-06T23:06:31.914Z,1.00
2023-05-06T23:08:59.825Z,99.90
2023-05-06T23:11:27.751Z,99.90
2023-05-06T23:13:57.028Z,99.90
2023-05-06T23:16:24.992Z,99.90
2023-05-06T23:18:53.816Z,99.90
2023-05-06T23:21:21.710Z,99.90
2023-05-06T23:23:49.647Z,99.90
2023-05-06T23:26:17.592Z,99.90
2023-05-06T23:28:45.507Z,99.90
2023-05-06T23:31:15.816Z,99.90
2023-05-06T23:33:43.739Z,99.90
2023-05-06T23:36:11.693Z,99.90
2023-05-06T23:38:39.604Z,99.90
2023-05-06T23:41:07.564Z,99.90
2023-05-06T23:43:35.519Z,99.90
2023-05-06T23:46:03.403Z,99.90
2023-05-06T23:48:32.772Z,99.90
2023-05-06T23:51:00.692Z,99.90
2023-05-06T23:53:28.602Z,99.90
2023-05-06T23:55:56.661Z,99.90
2023-05-06T23:58:24.602Z,99.90
